Flight Track Log - Related Links

Times and Time Zones

All times are in EDT time to prevent confusion due to time zone crossing. See the ACA831 flight status page for this flight to view local times or setup timezone preferences in your user account.

Time Position Orientation Groundspeed Altitude Reporting Facility
EDT Latitude Longitude Course Direction KTS MPH feet Rate Location/Type
Fri 06:21:13 AM 46.2330 6.1080 33° Northeast 11 13  Level FlightAware ADS-B
Fri 06:21:44 AM 46.2350 6.1110 46° Northeast 13 15 93 Level FlightAware ADS-B
Fri 06:22:04 AM 46.2360 6.1120 35° Northeast 8 9 97 Level FlightAware ADS-B
Fri 06:22:24 AM 46.2360 6.1110 270° West 9 10 99 Level FlightAware ADS-B
Fri 06:22:34 AM 46.2370 6.1110 360° North 8 9 102 Level FlightAware ADS-B
Fri 06:23:03 AM 46.2380 6.1120 35° Northeast 11 13 103 Level FlightAware ADS-B
Fri 06:23:28 AM 46.2390 6.1130 35° Northeast 13 15 108 Level FlightAware ADS-B
Fri 06:23:58 AM 46.2400 6.1150 54° Northeast 14 16 111 Level FlightAware ADS-B
Fri 06:24:18 AM 46.2410 6.1160 35° Northeast 12 14 116 Level FlightAware ADS-B
Fri 06:24:43 AM 46.2420 6.1180 54° Northeast 13 15 120 Level FlightAware ADS-B
Fri 06:25:08 AM 46.2430 6.1200 54° Northeast 15 17 125 Level FlightAware ADS-B
Fri 06:25:38 AM 46.2440 6.1220 54° Northeast 11 13 130 Level FlightAware ADS-B
Fri 06:26:03 AM 46.2450 6.1230 35° Northeast 10 12 137 Level FlightAware ADS-B
Fri 06:28:00 AM 46.3641 5.8270 282° West  Level Estimated
Fri 06:28:39 AM 46.2470 6.1260 282° West 1 1  Level FlightAware ADS-B
Fri 06:29:19 AM 46.2480 6.1270 35° Northeast 6 7 201 Level FlightAware ADS-B
Fri 06:32:00 AM 46.4117 5.7193 294° West  Level Estimated
Fri 06:33:00 AM 46.4723 5.5668 289° West  Level Estimated
Fri 06:33:14 AM 46.2490 6.1270 289° West 4 5  Level FlightAware ADS-B
Fri 06:33:34 AM 46.2500 6.1270 360° North 7 8 684 Level FlightAware ADS-B
Fri 06:34:32 AM 46.2500 6.1260 270° West 12 14 830 Level FlightAware ADS-B
Fri 06:35:08 AM 46.2330 6.1010 225° Southwest 185 213 1,300 2,370 Climbing FlightAware ADS-B
Fri 06:35:53 AM 46.2080 6.0660 224° Southwest 187 215 3,200 2,494 Climbing FlightAware ADS-B
Fri 06:36:25 AM 46.1870 6.0340 227° Southwest 194 223 4,500 2,323 Climbing FlightAware ADS-B
Fri 06:36:55 AM 46.1700 6.0090 226° Southwest 197 227 5,600 2,192 Climbing FlightAware ADS-B
Fri 06:37:17 AM 46.1560 5.9880 226° Southwest 199 229 6,400 1,882 Climbing FlightAware ADS-B
Fri 06:37:46 AM 46.1380 5.9580 229° Southwest 212 244 7,200 1,672 Climbing FlightAware ADS-B
Fri 06:38:18 AM 46.1540 5.9100 296° West 238 274 8,100 1,857 Climbing FlightAware ADS-B
Fri 06:38:28 AM 46.1640 5.9040 337° Northwest 246 283 8,500 2,250 Climbing FlightAware ADS-B
Fri 06:38:58 AM 46.1970 5.8850 338° Northwest 256 295 9,600 1,971 Climbing FlightAware ADS-B
Fri 06:39:38 AM 46.2420 5.8570 337° Northwest 294 338 10,800 1,575 Climbing FlightAware ADS-B
Fri 06:40:18 AM 46.2960 5.8090 328° Northwest 345 397 11,700 1,902 Climbing FlightAware ADS-B
Fri 06:41:41 AM 46.4210 5.6970 328° Northwest 396 456 14,700 2,537 Climbing FlightAware ADS-B
Fri 06:42:21 AM 46.4850 5.6400 328° Northwest 396 456 16,900 2,672 Climbing FlightAware ADS-B
Fri 06:43:49 AM 46.6240 5.5150 328° Northwest 414 476 20,400 2,273 Climbing FlightAware ADS-B
Fri 06:44:33 AM 46.6970 5.4500 329° Northwest 420 483 21,900 1,095 Climbing FlightAware ADS-B
Fri 06:46:17 AM 46.8670 5.2960 328° Northwest 424 488 23,100 1,157 Climbing FlightAware ADS-B
Fri 06:47:50 AM 46.9890 5.1820 300° West 428 493 25,700 1,225 Climbing FlightAware ADS-B
Fri 06:48:00 AM 46.9694 5.0304 300° West  Level Estimated
Fri 06:48:39 AM 47.0940 5.0760 326° Northwest 410 472 26,000  Level FlightAware ADS-B
Fri 06:49:19 AM 47.1550 4.9960 318° Northwest 415 478 26,000  Level FlightAware ADS-B
Fri 06:49:57 AM 47.1980 4.9340 316° Northwest 422 486 26,000  Level FlightAware ADS-B
Fri 06:51:07 AM 47.2960 4.7920 316° Northwest 421 484 26,000  Level FlightAware ADS-B
Fri 06:51:51 AM 47.3540 4.7060 315° West 420 483 26,000  Level FlightAware ADS-B
Fri 06:52:36 AM 47.4210 4.6080 315° West 418 481 26,000  Level FlightAware ADS-B
Fri 06:53:19 AM 47.4880 4.5090 315° West 417 480 26,000  Level FlightAware ADS-B
Fri 06:53:59 AM 47.5400 4.4310 315° West 419 482 26,000  Level FlightAware ADS-B
Fri 06:54:45 AM 47.6030 4.3370 315° West 420 483 26,000  Level FlightAware ADS-B
Fri 06:55:19 AM 47.6500 4.2620 313° West 426 490 26,000  Level FlightAware ADS-B
Fri 06:56:05 AM 47.7030 4.1540 306° West 431 496 26,000  Level FlightAware ADS-B
Fri 06:56:45 AM 47.7450 4.0620 304° West 431 496 26,000  Level FlightAware ADS-B
Fri 06:57:33 AM 47.8010 3.9380 304° West 431 496 26,000  Level FlightAware ADS-B
Fri 06:58:11 AM 47.8430 3.8450 304° West 432 497 26,000  Level FlightAware ADS-B
Fri 06:58:52 AM 47.8890 3.7410 303° West 433 498 26,000  Level FlightAware ADS-B
Fri 06:59:38 AM 47.9390 3.6280 303° West 434 499 26,000 820 Level FlightAware ADS-B
Fri 07:02:00 AM 48.0732 3.2484 298° West  Level Estimated
Fri 07:03:00 AM 48.1295 3.0875 298° West  Level Estimated
Fri 07:03:52 AM 48.2590 3.1890 298° West 407 468 30,100  Level FlightAware ADS-B
Fri 07:04:00 AM 48.1856 2.9262 298° West  Level Estimated
Fri 07:04:38 AM 48.3600 3.0580 319° Northwest 401 461 32,000  Level FlightAware ADS-B
Fri 07:05:18 AM 48.4140 2.9760 315° West 416 479 32,000  Level FlightAware ADS-B
Fri 07:06:02 AM 48.4440 2.8520 290° West 443 510 32,000  Level FlightAware ADS-B
Fri 07:06:39 AM 48.4550 2.7410 279° West 452 520 32,000  Level FlightAware ADS-B
Fri 07:08:32 AM 48.4890 2.3940 279° West 445 512 32,000  Level FlightAware ADS-B
Fri 07:09:18 AM 48.5040 2.2550 279° West 444 511 32,000  Level FlightAware ADS-B
Fri 07:10:07 AM 48.5199 2.0981 279° West 472 543 32,000  Level FlightAware UK
Fri 07:10:37 AM 48.5292 2.0071 279° West 474 545 32,000  Level FlightAware UK
Fri 07:11:31 AM 48.5433 1.8416 277° West 472 543 32,000  Level FlightAware UK
Fri 07:12:19 AM 48.5558 1.6941 277° West 474 545 32,000  Level FlightAware UK
Fri 07:12:32 AM 48.5550 1.7010 277° West 445 512 32,000  Level FlightAware ADS-B
Fri 07:13:07 AM 48.5683 1.5457 277° West 474 545 32,000  Level FlightAware UK
Fri 07:13:19 AM 48.5710 1.5200 277° West 445 512 32,000  Level FlightAware ADS-B
Fri 07:13:59 AM 48.5820 1.3940 278° West 446 513 32,000  Level FlightAware ADS-B
Fri 07:14:40 AM 48.5940 1.2600 278° West 448 516 32,000  Level FlightAware ADS-B
Fri 07:14:57 AM 48.5980 1.2090 277° West 447 514 32,000  Level FlightAware ADS-B
Fri 07:15:31 AM 48.6068 1.1011 277° West 478 550 32,000  Level FlightAware UK
Fri 07:17:42 AM 48.6399 0.6918 277° West 476 548 32,000  Level FlightAware UK
Fri 07:18:30 AM 48.6517 0.5433 277° West 476 548 32,000  Level FlightAware UK
Fri 07:19:06 AM 48.6603 0.4313 277° West 478 550 32,000  Level FlightAware UK
Fri 07:19:36 AM 48.6676 0.3377 277° West 476 548 32,000  Level FlightAware UK
Fri 07:20:06 AM 48.6749 0.2444 277° West 476 548 32,000  Level FlightAware UK
Fri 07:20:46 AM 48.6830 0.1420 277° West 450 518 32,000  Level FlightAware ADS-B
Fri 07:21:27 AM 48.6940 -0.0080 276° West 449 517 32,000  Level FlightAware ADS-B
Fri 07:22:06 AM 48.7024 -0.1299 276° West 478 550 32,000  Level FlightAware UK
Fri 07:22:11 AM 48.7040 -0.1420 276° West 449 517 32,000  Level FlightAware ADS-B
Fri 07:22:51 AM 48.7130 -0.2670 276° West 449 517 32,000  Level FlightAware ADS-B
Fri 07:23:35 AM 48.7220 -0.4010 276° West 448 516 32,000  Level FlightAware ADS-B
Fri 07:24:14 AM 48.7310 -0.5240 276° West 448 516 32,000  Level FlightAware ADS-B
Fri 07:25:05 AM 48.7419 -0.6888 276° West 474 545 32,000  Level FlightAware UK
Fri 07:25:07 AM 48.7420 -0.6880 276° West 449 517 32,000  Level FlightAware ADS-B
Fri 07:25:41 AM 48.7495 -0.8014 276° West 476 548 32,000  Level FlightAware UK
Fri 07:26:47 AM 48.7629 -1.0076 276° West 476 548 32,000  Level FlightAware UK
Fri 07:27:47 AM 48.7749 -1.1954 276° West 476 548 32,000  Level FlightAware UK
Fri 07:28:29 AM 48.7832 -1.3275 275° West 476 548 32,000  Level FlightAware UK
Fri 07:29:11 AM 48.7913 -1.4595 275° West 476 548 32,000  Level FlightAware UK
Fri 07:29:40 AM 48.7970 -1.5500 275° West 454 522 32,000  Level FlightAware ADS-B
Fri 07:29:41 AM 48.7970 -1.5547 275° West 476 548 32,000  Level FlightAware UK
Fri 07:30:11 AM 48.8026 -1.6499 275° West 476 548 32,000  Level FlightAware UK
Fri 07:30:21 AM 48.8040 -1.6800 275° West 455 524 32,000  Level FlightAware ADS-B
Fri 07:31:00 AM 48.8110 -1.8000 275° West 456 525 32,000  Level FlightAware ADS-B
Fri 07:31:48 AM 48.8200 -1.9560 275° West 458 527 32,000  Level FlightAware ADS-B
Fri 07:32:28 AM 48.8275 -2.0885 275° West 478 550 32,000  Level FlightAware UK
Fri 07:32:28 AM 48.8270 -2.0850 275° West 458 527 32,000  Level FlightAware ADS-B
Fri 07:33:10 AM 48.8346 -2.2220 275° West 478 550 32,000  Level FlightAware UK
Fri 07:33:10 AM 48.8350 -2.2200 275° West 459 528 32,000  Level FlightAware ADS-B
Fri 07:33:46 AM 48.8407 -2.3379 275° West 478 550 32,000  Level FlightAware UK
Fri 07:33:50 AM 48.8410 -2.3470 275° West 459 528 32,000  Level FlightAware ADS-B
Fri 07:34:34 AM 48.8490 -2.4890 275° West 459 528 32,000  Level FlightAware ADS-B
Fri 07:35:10 AM 48.8550 -2.6050 275° West 459 528 32,000  Level FlightAware ADS-B
Fri 07:35:52 AM 48.8610 -2.7410 274° West 460 529 32,000  Level FlightAware ADS-B
Fri 07:36:36 AM 48.8680 -2.8780 274° West 460 529 32,000  Level FlightAware ADS-B
Fri 07:36:40 AM 48.8689 -2.8957 274° West 478 550 32,000  Level FlightAware UK
Fri 07:37:10 AM 48.8735 -2.9922 274° West 478 550 32,000  Level FlightAware UK
Fri 07:37:46 AM 48.8790 -3.1073 274° West 478 550 32,000  Level FlightAware UK
Fri 07:37:52 AM 48.8800 -3.1230 274° West 461 531 32,000  Level FlightAware ADS-B
Fri 07:38:30 AM 48.8850 -3.2460 274° West 461 531 32,000  Level FlightAware ADS-B
Fri 07:39:14 AM 48.8920 -3.3920 274° West 460 529 32,000  Level FlightAware ADS-B
Fri 07:39:54 AM 48.8970 -3.5180 274° West 462 532 32,000  Level FlightAware ADS-B
Fri 07:40:33 AM 48.9028 -3.6479 274° West 476 548 32,000  Level FlightAware UK
Fri 07:40:46 AM 48.9040 -3.6870 274° West 462 532 32,000  Level FlightAware ADS-B
Fri 07:41:30 AM 48.9100 -3.8300 274° West 464 534 32,000  Level FlightAware ADS-B
Fri 07:42:09 AM 48.9151 -3.9589 274° West 478 550 32,000  Level FlightAware UK
Fri 07:42:12 AM 48.9150 -3.9670 274° West 464 534 32,000  Level FlightAware ADS-B
Fri 07:42:51 AM 48.9202 -4.0954 274° West 480 552 32,000  Level FlightAware UK
Fri 07:43:00 AM 48.9210 -4.1210 274° West 464 534 32,000  Level FlightAware ADS-B
Fri 07:43:33 AM 48.9254 -4.2316 274° West 480 552 32,000  Level FlightAware UK
Fri 07:43:42 AM 48.9260 -4.2580 274° West 465 535 32,000  Level FlightAware ADS-B
Fri 07:44:22 AM 48.9310 -4.3900 273° West 465 535 32,000  Level FlightAware ADS-B
Fri 07:44:58 AM 48.9350 -4.5080 273° West 465 535 32,000  Level FlightAware ADS-B
Fri 07:45:39 AM 48.9395 -4.6421 273° West 478 550 32,000  Level FlightAware UK
Fri 07:45:44 AM 48.9400 -4.6570 273° West 465 535 32,000  Level FlightAware ADS-B
Fri 07:46:27 AM 48.9440 -4.7960 273° West 466 536 32,000  Level FlightAware ADS-B
Fri 07:46:57 AM 48.9473 -4.8958 273° West 478 550 32,000  Level FlightAware UK
Fri 07:47:06 AM 48.9480 -4.9200 273° West 467 537 32,000  Level FlightAware ADS-B
Fri 07:47:51 AM 48.9520 -5.0670 272° West 467 537 32,000  Level FlightAware ADS-B
Fri 07:48:31 AM 48.9560 -5.1970 273° West 468 539 32,000  Level FlightAware ADS-B
Fri 07:49:09 AM 48.9597 -5.3284 273° West 476 548 32,000  Level FlightAware UK
Fri 07:49:18 AM 48.9600 -5.3580 273° West 468 539 32,000  Level FlightAware ADS-B
Fri 07:49:55 AM 48.9640 -5.4770 273° West 468 539 32,000  Level FlightAware ADS-B
Fri 07:50:39 AM 48.9672 -5.6243 273° West 478 550 32,000  Level FlightAware UK
Fri 07:51:06 AM 48.9690 -5.7110 272° West 468 539 32,000  Level FlightAware ADS-B
Fri 07:51:09 AM 48.9698 -5.7228 272° West 478 550 32,000  Level FlightAware UK
Fri 07:51:39 AM 48.9721 -5.8213 272° West 478 550 32,000  Level FlightAware UK
Fri 07:51:52 AM 48.9730 -5.8620 272° West 469 540 32,000  Level FlightAware ADS-B
Fri 07:52:32 AM 48.9760 -5.9940 272° West 469 540 32,000  Level FlightAware ADS-B
Fri 07:53:14 AM 48.9780 -6.1310 272° West 469 540 32,000  Level FlightAware ADS-B
Fri 07:53:15 AM 48.9783 -6.1367 272° West 478 550 32,000  Level FlightAware UK
Fri 07:53:45 AM 48.9804 -6.2354 272° West 480 552 32,000  Level FlightAware UK
Fri 07:53:59 AM 48.9810 -6.2800 272° West 468 539 32,000  Level FlightAware ADS-B
Fri 07:54:34 AM 48.9830 -6.3950 272° West 468 539 32,000  Level FlightAware ADS-B
Fri 07:55:14 AM 48.9850 -6.5250 272° West 467 537 32,000  Level FlightAware ADS-B
Fri 07:55:15 AM 48.9857 -6.5309 272° West 478 550 32,000  Level FlightAware UK
Fri 07:55:45 AM 48.9908 -6.6284 272° West 478 550 32,000  Level FlightAware UK
Fri 07:56:00 AM 48.9990 -6.6730 272° West 459 528 32,000  Level FlightAware ADS-B
Fri 07:56:44 AM 49.0220 -6.8110 272° West 459 528 32,000  Level FlightAware ADS-B
Fri 07:56:45 AM 49.0236 -6.8150 272° West 476 548 32,000  Level FlightAware UK
Fri 07:57:15 AM 49.0378 -6.9094 272° West 476 548 32,000  Level FlightAware UK
Fri 07:57:26 AM 49.0420 -6.9440 272° West 459 528 32,000  Level FlightAware ADS-B
Fri 07:57:54 AM 49.0530 -7.0300 281° West 460 529 32,000  Level FlightAware ADS-B
Fri 07:58:34 AM 49.0700 -7.1620 281° West 460 529 32,000  Level FlightAware ADS-B
Fri 07:59:21 AM 49.0910 -7.3060 283° West 461 531 32,000  Level FlightAware ADS-B
Fri 07:59:58 AM 49.1100 -7.4280 283° West 462 532 32,000  Level FlightAware ADS-B
Fri 08:00:38 AM 49.1290 -7.5490 284° West 464 534 32,000  Level FlightAware ADS-B
Fri 08:01:18 AM 49.1490 -7.6810 284° West 466 536 32,000  Level FlightAware ADS-B
Fri 08:01:20 AM 49.1502 -7.6894 284° West 478 550 32,000  Level FlightAware UK
Fri 08:01:50 AM 49.1647 -7.7854 284° West 478 550 32,000  Level FlightAware UK
Fri 08:02:06 AM 49.1720 -7.8350 284° West 467 537 32,000  Level FlightAware ADS-B
Fri 08:02:49 AM 49.1920 -7.9720 284° West 469 540 32,000  Level FlightAware ADS-B
Fri 08:02:50 AM 49.1931 -7.9785 284° West 480 552 32,000  Level FlightAware UK
Fri 08:03:26 AM 49.2100 -8.0944 284° West 482 555 32,000  Level FlightAware UK
Fri 08:03:32 AM 49.2120 -8.1110 284° West 470 541 32,000  Level FlightAware ADS-B
Fri 08:04:14 AM 49.2320 -8.2480 283° West 470 541 32,000  Level FlightAware ADS-B
Fri 08:04:54 AM 49.2510 -8.3770 283° West 470 541 32,000  Level FlightAware ADS-B
Fri 08:04:56 AM 49.2524 -8.3863 283° West 482 555 32,000  Level FlightAware UK
Fri 08:05:26 AM 49.2663 -8.4838 283° West 480 552 32,000  Level FlightAware UK
Fri 08:05:46 AM 49.2750 -8.5470 283° West 471 542 32,000  Level FlightAware ADS-B
Fri 08:06:32 AM 49.2940 -8.6810 282° West 470 541 32,000  Level FlightAware ADS-B
Fri 08:07:08 AM 49.3080 -8.7810 282° West 470 541 32,000  Level FlightAware ADS-B
Fri 08:07:55 AM 49.3260 -8.9110 282° West 470 541 32,000  Level FlightAware ADS-B
Fri 08:08:56 AM 49.3490 -9.0810 282° West 470 541 32,000 377 Level FlightAware ADS-B
Fri 08:11:00 AM 49.4364 -9.4431 290° West  Level Estimated
Fri 08:12:00 AM 49.4782 -9.6188 290° West  Level Estimated
Fri 08:13:00 AM 49.5198 -9.7947 290° West  Level Estimated
Fri 08:13:13 AM 49.4690 -9.9750 290° West 459 528 34,000  Level FlightAware ADS-B
Fri 08:14:03 AM 49.4860 -10.1110 281° West 459 528 34,000  Level FlightAware ADS-B
Fri 08:14:41 AM 49.4990 -10.2150 281° West 459 528 34,000  Level FlightAware ADS-B
Fri 08:14:51 AM 49.5020 -10.2420 280° West 459 528 34,000  Level FlightAware ADS-B
Fri 08:18:00 AM 49.6300 -10.7988 290° West  Level Estimated
Fri 08:19:00 AM 49.6700 -10.9761 289° West  Level Estimated
Fri 08:19:48 AM 49.6040 -11.0540 289° West 459 528 34,000  Level FlightAware ADS-B
Fri 08:20:51 AM 49.6260 -11.2260 281° West 459 528 34,000  Level FlightAware ADS-B
Fri 08:21:37 AM 49.6420 -11.3520 281° West 459 528 34,000  Level FlightAware ADS-B
Fri 08:22:15 AM 49.6550 -11.4560 281° West 459 528 34,000  Level FlightAware ADS-B
Fri 08:23:02 AM 49.6710 -11.5840 281° West 459 528 34,000  Level FlightAware ADS-B
Fri 08:25:00 AM 49.7477 -11.9343 289° West  Level Estimated
Fri 08:26:00 AM 49.7863 -12.1129 289° West  Level Estimated
Fri 08:27:00 AM 49.8247 -12.2917 288° West  Level Estimated
Fri 08:28:00 AM 49.8627 -12.4709 288° West  Level Estimated
Fri 08:29:00 AM 49.9005 -12.6503 288° West  Level Estimated
Fri 08:30:00 AM 49.9380 -12.8300 288° West  Level Estimated
Fri 08:31:00 AM 49.9753 -13.0099 288° West  Level Estimated
Fri 08:32:00 AM 50.0122 -13.1902 288° West  Level Estimated
Fri 08:33:00 AM 50.0489 -13.3707 288° West  Level Estimated
Fri 08:34:00 AM 50.0853 -13.5515 287° West  Level Estimated
Fri 08:35:00 AM 50.1214 -13.7326 287° West  Level Estimated
Fri 08:36:00 AM 50.1572 -13.9139 287° West  Level Estimated
Fri 08:37:00 AM 50.1927 -14.0955 287° West  Level Estimated
Fri 08:38:00 AM 50.2280 -14.2774 287° West  Level Estimated
Fri 08:39:00 AM 50.2630 -14.4595 287° West  Level Estimated
Fri 08:40:00 AM 50.2977 -14.6420 287° West  Level Estimated
Fri 08:41:00 AM 50.3321 -14.8246 287° West  Level Estimated
Fri 08:42:00 AM 50.3662 -15.0076 286° West  Level Estimated
Fri 08:43:00 AM 50.4000 -15.1908 286° West  Level Estimated
Fri 08:44:00 AM 50.4336 -15.3743 286° West  Level Estimated
Fri 08:45:00 AM 50.4668 -15.5580 286° West  Level Estimated
Fri 08:46:00 AM 50.4998 -15.7420 286° West  Level Estimated
Fri 08:47:00 AM 50.5325 -15.9262 286° West  Level Estimated
Fri 08:48:00 AM 50.5648 -16.1107 286° West  Level Estimated
Fri 08:49:00 AM 50.5969 -16.2955 285° West  Level Estimated
Fri 08:50:00 AM 50.6287 -16.4804 285° West  Level Estimated
Fri 08:51:00 AM 50.6602 -16.6657 285° West  Level Estimated
Fri 08:52:00 AM 50.6914 -16.8512 285° West  Level Estimated
Fri 08:53:00 AM 50.7224 -17.0369 285° West  Level Estimated
Fri 08:54:00 AM 50.7530 -17.2229 285° West  Level Estimated
Fri 08:55:00 AM 50.7833 -17.4091 285° West  Level Estimated
Fri 08:56:00 AM 50.8133 -17.5956 284° West  Level Estimated
Fri 08:57:00 AM 50.8430 -17.7823 284° West  Level Estimated
Fri 08:58:00 AM 50.8725 -17.9693 284° West  Level Estimated
Fri 08:59:00 AM 50.9016 -18.1564 284° West  Level Estimated
Fri 09:00:00 AM 50.9304 -18.3438 284° West  Level Estimated
Fri 09:01:00 AM 50.9590 -18.5315 284° West  Level Estimated
Fri 09:02:00 AM 50.9872 -18.7194 283° West  Level Estimated
Fri 09:03:00 AM 51.0151 -18.9075 283° West  Level Estimated
Fri 09:04:00 AM 51.0428 -19.0958 283° West  Level Estimated
Fri 09:05:00 AM 51.0701 -19.2843 283° West  Level Estimated
Fri 09:05:00 AM 50.0000 -20.0000 265° West 463 533 34,000  Level ETMS Enhanced Traffic Management System
Fri 09:06:00 AM 51.0971 -19.4731 283° West  Level Estimated
Fri 09:07:00 AM 51.1238 -19.6621 283° West  Level Estimated
Fri 09:08:00 AM 51.1502 -19.8513 283° West  Level Estimated
Fri 09:09:00 AM 51.1763 -20.0407 282° West  Level Estimated
Fri 09:10:00 AM 51.2021 -20.2304 282° West  Level Estimated
Fri 09:11:00 AM 49.9007 -21.5932 264° West 463 533 34,000  Level FlightAware Transoceanic
Fri 09:12:00 AM 49.8867 -21.7919 264° West 463 533 34,000  Level FlightAware Transoceanic
Fri 09:13:00 AM 49.8724 -21.9904 264° West 463 533 34,000  Level FlightAware Transoceanic
Fri 09:14:00 AM 49.8578 -22.1889 263° West 463 533 34,000  Level FlightAware Transoceanic
Fri 09:15:00 AM 49.8428 -22.3872 263° West 463 533 34,000  Level FlightAware Transoceanic
Fri 09:16:00 AM 49.8275 -22.5854 263° West 463 533 34,000  Level FlightAware Transoceanic
Fri 09:17:00 AM 49.8119 -22.7834 263° West 463 533 34,000  Level FlightAware Transoceanic
Fri 09:18:00 AM 49.7959 -22.9814 263° West 463 533 34,000  Level FlightAware Transoceanic
Fri 09:19:00 AM 49.7796 -23.1792 263° West 463 533 34,000  Level FlightAware Transoceanic
Fri 09:20:00 AM 49.7629 -23.3768 262° West 463 533 34,000  Level FlightAware Transoceanic
Fri 09:21:00 AM 49.7459 -23.5744 262° West 463 533 34,000  Level FlightAware Transoceanic
Fri 09:22:00 AM 49.7286 -23.7718 262° West 463 533 34,000  Level FlightAware Transoceanic
Fri 09:23:00 AM 49.7109 -23.9690 262° West 463 533 34,000  Level FlightAware Transoceanic
Fri 09:24:00 AM 49.6929 -24.1661 262° West 463 533 34,000  Level FlightAware Transoceanic
Fri 09:25:00 AM 49.6746 -24.3631 262° West 463 533 34,000  Level FlightAware Transoceanic
Fri 09:26:00 AM 49.6559 -24.5599 262° West 463 533 34,000  Level FlightAware Transoceanic
Fri 09:27:00 AM 49.6370 -24.7565 261° West 463 533 34,000  Level FlightAware Transoceanic
Fri 09:28:00 AM 49.6176 -24.9530 261° West 463 533 34,000  Level FlightAware Transoceanic
Fri 09:29:00 AM 49.5980 -25.1494 261° West 463 533 34,000  Level FlightAware Transoceanic
Fri 09:30:00 AM 49.5780 -25.3456 261° West 463 533 34,000  Level FlightAware Transoceanic
Fri 09:31:00 AM 49.5576 -25.5416 261° West 463 533 34,000  Level FlightAware Transoceanic
Fri 09:32:00 AM 49.5370 -25.7374 261° West 463 533 34,000  Level FlightAware Transoceanic
Fri 09:33:00 AM 49.5160 -25.9331 261° West 463 533 34,000  Level FlightAware Transoceanic
Fri 09:34:00 AM 49.4947 -26.1286 260° West 463 533 34,000  Level FlightAware Transoceanic
Fri 09:35:00 AM 49.4730 -26.3240 260° West 463 533 34,000  Level FlightAware Transoceanic
Fri 09:36:00 AM 49.4511 -26.5192 260° West 463 533 34,000  Level FlightAware Transoceanic
Fri 09:37:00 AM 49.4288 -26.7142 260° West 463 533 34,000  Level FlightAware Transoceanic
Fri 09:38:00 AM 49.4061 -26.9090 260° West 463 533 34,000  Level FlightAware Transoceanic
Fri 09:39:00 AM 49.3832 -27.1036 260° West 463 533 34,000  Level FlightAware Transoceanic
Fri 09:40:00 AM 49.3599 -27.2981 260° West 463 533 34,000  Level FlightAware Transoceanic
Fri 09:41:00 AM 49.3363 -27.4923 259° West 463 533 34,000  Level FlightAware Transoceanic
Fri 09:42:00 AM 49.3124 -27.6864 259° West 463 533 34,000  Level FlightAware Transoceanic
Fri 09:43:00 AM 49.2881 -27.8803 259° West 463 533 34,000  Level FlightAware Transoceanic
Fri 09:44:00 AM 49.2635 -28.0740 259° West 463 533 34,000  Level FlightAware Transoceanic
Fri 09:45:00 AM 49.2386 -28.2675 259° West 463 533 34,000  Level FlightAware Transoceanic
Fri 09:46:00 AM 49.2134 -28.4608 259° West 463 533 34,000  Level FlightAware Transoceanic
Fri 09:47:00 AM 49.1878 -28.6539 258° West 463 533 34,000  Level FlightAware Transoceanic
Fri 09:48:00 AM 49.1620 -28.8469 258° West 463 533 34,000  Level FlightAware Transoceanic
Fri 09:49:00 AM 49.1358 -29.0396 258° West 463 533 34,000  Level FlightAware Transoceanic
Fri 09:50:00 AM 49.1092 -29.2321 258° West 463 533 34,000  Level FlightAware Transoceanic
Fri 09:51:00 AM 49.0824 -29.4244 258° West 463 533 34,000  Level FlightAware Transoceanic
Fri 09:52:00 AM 49.0553 -29.6165 258° West 463 533 34,000  Level FlightAware Transoceanic
Fri 09:53:00 AM 49.0278 -29.8083 258° West 463 533 34,000  Level FlightAware Transoceanic
Fri 09:54:00 AM 49.0488 -29.9911 280° West  Level Estimated
Fri 09:55:00 AM 49.0696 -30.1740 280° West  Level Estimated
Fri 09:56:00 AM 49.0901 -30.3570 280° West  Level Estimated
Fri 09:57:00 AM 49.1102 -30.5402 280° West  Level Estimated
Fri 09:58:00 AM 49.1301 -30.7235 279° West  Level Estimated
Fri 09:58:00 AM 49.0000 -30.0000 257° West 456 525 34,000  Level ETMS Enhanced Traffic Management System
Fri 09:59:00 AM 49.1497 -30.9070 279° West  Level Estimated
Fri 10:00:00 AM 49.1690 -31.0906 279° West  Level Estimated
Fri 10:01:00 AM 49.1881 -31.2743 279° West  Level Estimated
Fri 10:02:00 AM 49.2068 -31.4583 279° West  Level Estimated
Fri 10:03:00 AM 49.2252 -31.6423 279° West  Level Estimated
Fri 10:04:00 AM 48.7020 -31.8741 256° West 456 525 34,000  Level FlightAware Transoceanic
Fri 10:05:00 AM 48.6705 -32.0603 256° West 456 525 34,000  Level FlightAware Transoceanic
Fri 10:06:00 AM 48.6387 -32.2462 255° West 456 525 34,000  Level FlightAware Transoceanic
Fri 10:07:00 AM 48.6067 -32.4319 255° West 456 525 34,000  Level FlightAware Transoceanic
Fri 10:08:00 AM 48.5743 -32.6174 255° West 456 525 34,000  Level FlightAware Transoceanic
Fri 10:09:00 AM 48.5416 -32.8026 255° West 456 525 34,000  Level FlightAware Transoceanic
Fri 10:10:00 AM 48.5087 -32.9876 255° West 456 525 34,000  Level FlightAware Transoceanic
Fri 10:11:00 AM 48.4754 -33.1724 255° West 456 525 34,000  Level FlightAware Transoceanic
Fri 10:12:00 AM 48.4419 -33.3568 255° West 456 525 34,000  Level FlightAware Transoceanic
Fri 10:13:00 AM 48.4080 -33.5411 254° West 456 525 34,000  Level FlightAware Transoceanic
Fri 10:14:00 AM 48.3739 -33.7251 254° West 456 525 34,000  Level FlightAware Transoceanic
Fri 10:15:00 AM 48.3395 -33.9089 254° West 456 525 34,000  Level FlightAware Transoceanic
Fri 10:16:00 AM 48.3047 -34.0924 254° West 456 525 34,000  Level FlightAware Transoceanic
Fri 10:17:00 AM 48.2697 -34.2756 254° West 456 525 34,000  Level FlightAware Transoceanic
Fri 10:18:00 AM 48.2344 -34.4586 254° West 456 525 34,000  Level FlightAware Transoceanic
Fri 10:19:00 AM 48.1988 -34.6414 254° West 456 525 34,000  Level FlightAware Transoceanic
Fri 10:20:00 AM 48.1629 -34.8239 254° West 456 525 34,000  Level FlightAware Transoceanic
Fri 10:21:00 AM 48.1268 -35.0061 253° West 456 525 34,000  Level FlightAware Transoceanic
Fri 10:22:00 AM 48.0903 -35.1881 253° West 456 525 34,000  Level FlightAware Transoceanic
Fri 10:23:00 AM 48.0536 -35.3699 253° West 456 525 34,000  Level FlightAware Transoceanic
Fri 10:24:00 AM 48.0165 -35.5513 253° West 456 525 34,000  Level FlightAware Transoceanic
Fri 10:25:00 AM 47.9792 -35.7325 253° West 456 525 34,000  Level FlightAware Transoceanic
Fri 10:26:00 AM 47.9416 -35.9135 253° West 456 525 34,000  Level FlightAware Transoceanic
Fri 10:27:00 AM 47.9037 -36.0942 253° West 456 525 34,000  Level FlightAware Transoceanic
Fri 10:28:00 AM 47.8655 -36.2746 252° West 456 525 34,000  Level FlightAware Transoceanic
Fri 10:29:00 AM 47.8271 -36.4547 252° West 456 525 34,000  Level FlightAware Transoceanic
Fri 10:30:00 AM 47.7883 -36.6346 252° West 456 525 34,000  Level FlightAware Transoceanic
Fri 10:31:00 AM 47.7493 -36.8142 252° West 456 525 34,000  Level FlightAware Transoceanic
Fri 10:32:00 AM 47.7100 -36.9935 252° West 456 525 34,000  Level FlightAware Transoceanic
Fri 10:33:00 AM 47.6705 -37.1726 252° West 456 525 34,000  Level FlightAware Transoceanic
Fri 10:34:00 AM 47.6306 -37.3514 252° West 456 525 34,000  Level FlightAware Transoceanic
Fri 10:35:00 AM 47.5905 -37.5299 251° West 456 525 34,000  Level FlightAware Transoceanic
Fri 10:36:00 AM 47.5501 -37.7082 251° West 456 525 34,000  Level FlightAware Transoceanic
Fri 10:37:00 AM 47.5094 -37.8862 251° West 456 525 34,000  Level FlightAware Transoceanic
Fri 10:38:00 AM 47.4684 -38.0639 251° West 456 525 34,000  Level FlightAware Transoceanic
Fri 10:39:00 AM 47.4272 -38.2413 251° West 456 525 34,000  Level FlightAware Transoceanic
Fri 10:40:00 AM 47.3857 -38.4184 251° West 456 525 34,000  Level FlightAware Transoceanic
Fri 10:41:00 AM 47.3439 -38.5953 251° West 456 525 34,000  Level FlightAware Transoceanic
Fri 10:42:00 AM 47.3019 -38.7719 251° West 456 525 34,000  Level FlightAware Transoceanic
Fri 10:43:00 AM 47.2595 -38.9482 250° West 456 525 34,000  Level FlightAware Transoceanic
Fri 10:44:00 AM 47.2170 -39.1242 250° West 456 525 34,000  Level FlightAware Transoceanic
Fri 10:45:00 AM 47.1741 -39.2999 250° West 456 525 34,000  Level FlightAware Transoceanic
Fri 10:46:00 AM 47.1310 -39.4754 250° West 456 525 34,000  Level FlightAware Transoceanic
Fri 10:47:00 AM 47.0876 -39.6505 250° West 456 525 34,000  Level FlightAware Transoceanic
Fri 10:48:00 AM 47.0439 -39.8254 250° West 456 525 34,000  Level FlightAware Transoceanic
Fri 10:49:00 AM 47.0622 -40.0019 279° West  Level Estimated
Fri 10:50:00 AM 47.0802 -40.1785 279° West  Level Estimated
Fri 10:50:37 AM 47.0000 -40.0000 250° West 457 526 34,000  Level ETMS Enhanced Traffic Management System
Fri 10:51:00 AM 47.0979 -40.3552 278° West  Level Estimated
Fri 10:52:00 AM 47.1153 -40.5321 278° West  Level Estimated
Fri 10:53:00 AM 47.1324 -40.7083 278° West  Level Estimated
Fri 10:54:00 AM 47.1492 -40.8846 278° West  Level Estimated
Fri 10:55:00 AM 47.1657 -41.0610 278° West  Level Estimated
Fri 10:56:00 AM 46.6517 -41.3943 249° West 457 526 34,000  Level FlightAware Transoceanic
Fri 10:57:00 AM 46.6070 -41.5674 249° West 457 526 34,000  Level FlightAware Transoceanic
Fri 10:58:00 AM 46.5620 -41.7401 249° West 457 526 34,000  Level FlightAware Transoceanic
Fri 10:59:00 AM 46.5168 -41.9125 249° West 457 526 34,000  Level FlightAware Transoceanic
Fri 11:00:00 AM 46.4713 -42.0847 249° West 457 526 34,000  Level FlightAware Transoceanic
Fri 11:01:00 AM 46.4256 -42.2565 249° West 457 526 34,000  Level FlightAware Transoceanic
Fri 11:02:00 AM 46.3796 -42.4281 249° West 457 526 34,000  Level FlightAware Transoceanic
Fri 11:03:00 AM 46.3333 -42.5994 249° West 457 526 34,000  Level FlightAware Transoceanic
Fri 11:04:00 AM 46.2868 -42.7704 248° West 457 526 34,000  Level FlightAware Transoceanic
Fri 11:05:00 AM 46.2400 -42.9411 248° West 457 526 34,000  Level FlightAware Transoceanic
Fri 11:06:00 AM 46.1930 -43.1115 248° West 457 526 34,000  Level FlightAware Transoceanic
Fri 11:07:00 AM 46.1457 -43.2817 248° West 457 526 34,000  Level FlightAware Transoceanic
Fri 11:08:00 AM 46.0981 -43.4515 248° West 457 526 34,000  Level FlightAware Transoceanic
Fri 11:09:00 AM 46.0504 -43.6210 248° West 457 526 34,000  Level FlightAware Transoceanic
Fri 11:10:00 AM 46.0023 -43.7903 248° West 457 526 34,000  Level FlightAware Transoceanic
Fri 11:11:00 AM 45.9540 -43.9592 248° West 457 526 34,000  Level FlightAware Transoceanic
Fri 11:12:00 AM 45.9055 -44.1279 247° West 457 526 34,000  Level FlightAware Transoceanic
Fri 11:13:00 AM 45.8567 -44.2962 247° West 457 526 34,000  Level FlightAware Transoceanic
Fri 11:14:00 AM 45.8077 -44.4643 247° West 457 526 34,000  Level FlightAware Transoceanic
Fri 11:15:00 AM 45.7584 -44.6321 247° West 457 526 34,000  Level FlightAware Transoceanic
Fri 11:16:00 AM 45.7089 -44.7995 247° West 457 526 34,000  Level FlightAware Transoceanic
Fri 11:17:00 AM 45.6591 -44.9667 247° West 457 526 34,000  Level FlightAware Transoceanic
Fri 11:18:00 AM 45.6091 -45.1336 247° West 457 526 34,000  Level FlightAware Transoceanic
Fri 11:19:00 AM 45.5589 -45.3002 247° West 457 526 34,000  Level FlightAware Transoceanic
Fri 11:20:00 AM 45.5084 -45.4664 247° West 457 526 34,000  Level FlightAware Transoceanic
Fri 11:21:00 AM 45.4576 -45.6324 246° West 457 526 34,000  Level FlightAware Transoceanic
Fri 11:22:00 AM 45.4067 -45.7981 246° West 457 526 34,000  Level FlightAware Transoceanic
Fri 11:23:00 AM 45.3555 -45.9635 246° West 457 526 34,000  Level FlightAware Transoceanic
Fri 11:24:00 AM 45.3040 -46.1286 246° West 457 526 34,000  Level FlightAware Transoceanic
Fri 11:25:00 AM 45.2523 -46.2933 246° West 457 526 34,000  Level FlightAware Transoceanic
Fri 11:26:00 AM 45.2004 -46.4578 246° West 457 526 34,000  Level FlightAware Transoceanic
Fri 11:27:00 AM 45.1483 -46.6220 246° West 457 526 34,000  Level FlightAware Transoceanic
Fri 11:28:00 AM 45.0959 -46.7859 246° West 457 526 34,000  Level FlightAware Transoceanic
Fri 11:29:00 AM 45.0432 -46.9495 245° Southwest 457 526 34,000  Level FlightAware Transoceanic
Fri 11:30:00 AM 44.9904 -47.1127 245° Southwest 457 526 34,000  Level FlightAware Transoceanic
Fri 11:31:00 AM 44.9373 -47.2757 245° Southwest 457 526 34,000  Level FlightAware Transoceanic
Fri 11:32:00 AM 44.8839 -47.4384 245° Southwest 457 526 34,000  Level FlightAware Transoceanic
Fri 11:33:00 AM 44.8304 -47.6007 245° Southwest 457 526 34,000  Level FlightAware Transoceanic
Fri 11:34:00 AM 44.7766 -47.7628 245° Southwest 457 526 34,000  Level FlightAware Transoceanic
Fri 11:35:00 AM 44.7226 -47.9246 245° Southwest 457 526 34,000  Level FlightAware Transoceanic
Fri 11:36:00 AM 44.6684 -48.0860 245° Southwest 457 526 34,000  Level FlightAware Transoceanic
Fri 11:37:00 AM 44.6139 -48.2472 245° Southwest 457 526 34,000  Level FlightAware Transoceanic
Fri 11:38:00 AM 44.5592 -48.4081 244° Southwest 457 526 34,000  Level FlightAware Transoceanic
Fri 11:39:00 AM 44.5043 -48.5686 244° Southwest 457 526 34,000  Level FlightAware Transoceanic
Fri 11:40:00 AM 44.4491 -48.7289 244° Southwest 457 526 34,000  Level FlightAware Transoceanic
Fri 11:41:00 AM 44.3938 -48.8888 244° Southwest 457 526 34,000  Level FlightAware Transoceanic
Fri 11:42:00 AM 44.3382 -49.0485 244° Southwest 457 526 34,000  Level FlightAware Transoceanic
Fri 11:42:58 AM 44.5000 -48.5667 245° Southwest 458 527 34,000  Level New York Oceanic (ODAPS)
Fri 11:43:00 AM 44.2824 -49.2078 244° Southwest 457 526 34,000  Level FlightAware Transoceanic
Fri 11:44:00 AM 44.2263 -49.3669 244° Southwest 457 526 34,000  Level FlightAware Transoceanic
Fri 11:45:00 AM 44.1701 -49.5256 244° Southwest 457 526 34,000  Level FlightAware Transoceanic
Fri 11:46:00 AM 44.1136 -49.6840 244° Southwest 457 526 34,000  Level FlightAware Transoceanic
Fri 11:47:00 AM 44.0569 -49.8422 243° Southwest 457 526 34,000  Level FlightAware Transoceanic
Fri 11:48:00 AM 44.0850 -50.0100 283° West  Level Estimated
Fri 11:49:00 AM 44.0000 -50.0000 274° West 458 527 34,000  Level FlightAware Transoceanic
Fri 11:50:00 AM 44.0088 -50.1654 274° West 458 527 34,000  Level FlightAware Transoceanic
Fri 11:50:34 AM 44.0000 -50.0000 274° West 458 527 34,000  Level New York Oceanic (ODAPS)
Fri 11:51:00 AM 44.0173 -50.3307 274° West 458 527 34,000  Level FlightAware Transoceanic
Fri 11:52:00 AM 44.0256 -50.4962 274° West 458 527 34,000  Level FlightAware Transoceanic
Fri 11:53:00 AM 44.0337 -50.6617 274° West 458 527 34,000  Level FlightAware Transoceanic
Fri 11:54:00 AM 44.0415 -50.8272 274° West 458 527 34,000  Level FlightAware Transoceanic
Fri 11:55:00 AM 44.0491 -50.9928 274° West 458 527 34,000  Level FlightAware Transoceanic
Fri 11:56:00 AM 44.0596 -51.2309 273° West 458 527 34,000  Level FlightAware Transoceanic
Fri 11:56:19 AM 44.0500 -51.1333 273° West 450 518 34,000  Level Gander Center
Fri 11:57:00 AM 44.0670 -51.4070 273° West 458 527 34,000  Level FlightAware Transoceanic
Fri 11:57:19 AM 44.0500 -51.3333 270° West 440 506 34,000  Level Gander Center
Fri 11:58:00 AM 44.0741 -51.5830 273° West 458 527 34,000  Level FlightAware Transoceanic
Fri 11:58:19 AM 44.0500 -51.4833 270° West 450 518 34,000  Level Gander Center
Fri 11:59:00 AM 44.0810 -51.7592 273° West 458 527 34,000  Level FlightAware Transoceanic
Fri 11:59:19 AM 44.0667 -51.6667 277° West 440 506 34,000  Level Gander Center
Fri 12:00:00 PM 44.0877 -51.9353 273° West 458 527 34,000  Level FlightAware Transoceanic
Fri 12:00:19 PM 44.0667 -51.8333 270° West 440 506 34,000  Level Gander Center
Fri 12:01:00 PM 44.0940 -52.1115 273° West 458 527 34,000  Level FlightAware Transoceanic
Fri 12:01:19 PM 44.0833 -52.0000 278° West 450 518 34,000  Level Gander Center
Fri 12:02:19 PM 44.0667 -52.1833 263° West 450 518 34,000  Level Gander Center
Fri 12:03:19 PM 44.0833 -52.3500 278° West 460 529 34,000  Level Gander Center
Fri 12:04:19 PM 44.0833 -52.5333 270° West 450 518 34,000  Level Gander Center
Fri 12:05:19 PM 44.1000 -52.6833 279° West 440 506 34,000  Level Gander Center
Fri 12:06:19 PM 44.1000 -52.8500 270° West 450 518 34,000  Level Gander Center
Fri 12:07:19 PM 44.1167 -53.0333 277° West 450 518 34,000  Level Gander Center
Fri 12:08:19 PM 44.1000 -53.2000 262° West 440 506 34,000  Level Gander Center
Fri 12:09:19 PM 44.1167 -53.3833 277° West 450 518 34,000  Level Gander Center
Fri 12:10:19 PM 44.1333 -53.5500 278° West 440 506 34,000  Level Gander Center
Fri 12:11:19 PM 44.1500 -53.7167 278° West 450 518 34,000  Level Gander Center
Fri 12:12:19 PM 44.1667 -53.8833 278° West 440 506 34,000  Level Gander Center
Fri 12:13:19 PM 44.1833 -54.0500 278° West 430 495 34,000  Level Gander Center
Fri 12:14:19 PM 44.2167 -54.2167 286° West 440 506 34,000  Level Gander Center
Fri 12:15:19 PM 44.2167 -54.4000 270° West 440 506 34,000 150 Level Gander Center
Fri 12:16:19 PM 44.2500 -54.5500 287° West 430 495 34,300 400 Climbing Gander Center
Fri 12:17:19 PM 44.2667 -54.7167 278° West 440 506 34,800 500 Climbing Gander Center
Fri 12:18:19 PM 44.2833 -54.9000 277° West 430 495 35,300 500 Climbing Gander Center
Fri 12:19:19 PM 44.3000 -55.0667 278° West 440 506 35,800 350 Climbing Gander Center
Fri 12:20:19 PM 44.3167 -55.2167 279° West 430 495 36,000 100 Climbing Gander Center
Fri 12:21:19 PM 44.3333 -55.3833 278° West 440 506 36,000  Level Gander Center
Fri 12:26:34 PM 44.4460 -56.3040 278° West 431 496 36,000  Level FlightAware ADS-B
Fri 12:27:23 PM 44.4580 -56.4280 278° West 432 497 36,000  Level FlightAware ADS-B
Fri 12:28:10 PM 44.4670 -56.5390 277° West 432 497 36,000  Level FlightAware ADS-B
Fri 12:28:50 PM 44.4830 -56.6800 279° West 432 497 36,000  Level FlightAware ADS-B
Fri 12:29:52 PM 44.4950 -56.8190 277° West 431 496 36,000  Level FlightAware ADS-B
Fri 12:33:56 PM 44.5590 -57.5230 278° West 437 503 36,000  Level FlightAware ADS-B
Fri 12:34:40 PM 44.5720 -57.6550 278° West 435 501 36,000  Level FlightAware ADS-B
Fri 12:35:34 PM 44.5840 -57.8020 277° West 437 503 36,000  Level FlightAware ADS-B
Fri 12:36:34 PM 44.5990 -57.9740 277° West 435 501 36,000  Level FlightAware ADS-B
Fri 12:37:40 PM 44.6140 -58.1600 277° West 434 499 36,000  Level FlightAware ADS-B
Fri 12:38:30 PM 44.6260 -58.2990 277° West 433 498 36,000  Level FlightAware ADS-B
Fri 12:38:58 PM 44.6320 -58.3780 276° West 433 498 36,000  Level FlightAware ADS-B
Fri 12:39:38 PM 44.6410 -58.4870 277° West 432 497 36,000  Level FlightAware ADS-B
Fri 12:40:15 PM 44.6490 -58.5890 276° West 433 498 36,000  Level FlightAware ADS-B
Fri 12:41:00 PM 44.6590 -58.7190 276° West 432 497 36,000  Level FlightAware ADS-B
Fri 12:41:41 PM 44.6680 -58.8300 277° West 432 497 36,000  Level FlightAware ADS-B
Fri 12:42:26 PM 44.6770 -58.9570 276° West 432 497 36,000  Level FlightAware ADS-B
Fri 12:43:08 PM 44.6860 -59.0730 276° West 433 498 36,000  Level FlightAware ADS-B
Fri 12:43:53 PM 44.6950 -59.1970 276° West 434 499 36,000  Level FlightAware ADS-B
Fri 12:44:34 PM 44.7030 -59.3140 276° West 434 499 36,000  Level FlightAware ADS-B
Fri 12:50:21 PM 44.7660 -60.2340 276° West 434 499 36,000  Level FlightAware ADS-B
Fri 12:51:20 PM 44.7790 -60.4540 275° West 435 501 36,000  Level FlightAware ADS-B
Fri 12:52:02 PM 44.7870 -60.5710 276° West 436 502 36,000  Level FlightAware ADS-B
Fri 12:52:44 PM 44.7940 -60.6930 275° West 436 502 36,000  Level FlightAware ADS-B
Fri 12:53:35 PM 44.8020 -60.8330 275° West 437 503 36,000  Level FlightAware ADS-B
Fri 12:54:20 PM 44.8090 -60.9540 275° West 437 503 36,000  Level FlightAware ADS-B
Fri 12:56:23 PM 44.8270 -61.2780 275° West 436 502 36,000  Level FlightAware ADS-B
Fri 12:57:04 PM 44.8320 -61.3770 274° West 436 502 36,000  Level FlightAware ADS-B
Fri 12:57:55 PM 44.8380 -61.5000 274° West 436 502 36,000  Level FlightAware ADS-B
Fri 12:58:31 PM 44.8420 -61.5860 274° West 436 502 36,000  Level FlightAware ADS-B
Fri 12:59:18 PM 44.8480 -61.7000 274° West 436 502 36,000  Level FlightAware ADS-B
Fri 12:59:54 PM 44.8520 -61.7870 274° West 436 502 36,000  Level FlightAware ADS-B
Fri 01:02:34 PM 44.8710 -62.1730 274° West 436 502 36,000  Level FlightAware ADS-B
Fri 01:03:22 PM 44.8770 -62.2890 274° West 436 502 36,000  Level FlightAware ADS-B
Fri 01:04:06 PM 44.8820 -62.3950 274° West 436 502 36,000  Level FlightAware ADS-B
Fri 01:04:44 PM 44.8860 -62.4860 274° West 436 502 36,000  Level FlightAware ADS-B
Fri 01:08:14 PM 44.9200 -63.3080 274° West 443 510 36,000  Level FlightAware ADS-B
Fri 01:08:52 PM 44.9250 -63.4060 274° West 443 510 36,000  Level FlightAware ADS-B
Fri 01:09:39 PM 44.9450 -63.5470 281° West 447 514 36,000  Level FlightAware ADS-B
Fri 01:10:15 PM 44.9600 -63.6440 282° West 449 517 36,000  Level FlightAware ADS-B
Fri 01:12:04 PM 45.0040 -63.9450 282° West 447 514 36,000  Level FlightAware ADS-B
Fri 01:12:57 PM 45.0240 -64.0740 282° West 445 512 36,000  Level FlightAware ADS-B
Fri 01:13:45 PM 45.0510 -64.2550 282° West 444 511 36,000  Level FlightAware ADS-B
Fri 01:14:29 PM 45.0670 -64.3650 282° West 443 510 36,000  Level FlightAware ADS-B
Fri 01:14:53 PM 45.0780 -64.4420 281° West 442 509 36,000  Level FlightAware ADS-B
Fri 01:15:47 PM 45.0833 -64.5833 281° West 440 506 36,000  Level Moncton Center
Fri 01:16:47 PM 45.1000 -64.7500 278° West 440 506 36,000  Level Moncton Center
Fri 01:17:47 PM 45.1333 -64.9167 286° West 440 506 36,000  Level Moncton Center
Fri 01:23:32 PM 45.2750 -65.8750 286° West 441 507 36,000  Level FlightAware ADS-B
Fri 01:24:19 PM 45.2930 -66.0150 280° West 439 505 36,000  Level FlightAware ADS-B
Fri 01:24:54 PM 45.3100 -66.1470 280° West 438 504 36,000  Level FlightAware ADS-B
Fri 01:26:08 PM 45.3340 -66.3350 280° West 436 502 36,000  Level FlightAware ADS-B
Fri 01:26:47 PM 45.3333 -66.4500 280° West 430 495 36,000  Level Moncton Center
Fri 01:27:47 PM 45.3500 -66.6333 277° West 430 495 36,000  Level Moncton Center
Fri 01:33:12 PM 45.4800 -67.5470 277° West 434 499 36,000  Level FlightAware ADS-B
Fri 01:33:55 PM 45.4930 -67.6660 279° West 436 502 36,000  Level FlightAware ADS-B
Fri 01:34:35 PM 45.5040 -67.7630 279° West 436 502 36,000  Level FlightAware ADS-B
Fri 01:37:10 PM 45.5570 -68.2360 279° West 449 517 36,000  Level FlightAware ADS-B
Fri 01:37:56 PM 45.5710 -68.3690 279° West 436 502 36,000  Level FlightAware ADS-B
Fri 01:38:28 PM 45.5810 -68.4580 279° West 429 494 36,000  Level FlightAware ADS-B
Fri 01:39:19 PM 45.6000 -68.6020 281° West 431 496 36,000  Level FlightAware ADS-B
Fri 01:39:58 PM 45.6170 -68.7090 283° West 433 498 36,000  Level FlightAware ADS-B
Fri 01:40:21 PM 45.6260 -68.7720 282° West 434 499 36,000  Level FlightAware ADS-B
Fri 01:42:42 PM 45.6850 -69.1540 283° West 436 502 36,000  Level FlightAware ADS-B
Fri 01:43:27 PM 45.7060 -69.2950 282° West 442 509 36,000  Level FlightAware ADS-B
Fri 01:43:52 PM 45.7170 -69.3680 282° West 446 513 36,000  Level FlightAware ADS-B
Fri 01:44:39 PM 45.7350 -69.4970 281° West 451 519 36,000  Level FlightAware ADS-B
Fri 01:46:42 PM 45.7890 -69.8650 282° West 460 529 36,000  Level FlightAware ADS-B
Fri 01:47:27 PM 45.8080 -70.0000 281° West 461 531 36,000  Level FlightAware ADS-B
Fri 01:48:07 PM 45.8250 -70.1180 282° West 461 531 36,000  Level FlightAware ADS-B
Fri 01:48:52 PM 45.8440 -70.2530 281° West 460 529 36,000  Level FlightAware ADS-B
Fri 01:49:27 PM 45.8580 -70.3580 281° West 460 529 36,000  Level FlightAware ADS-B
Fri 01:51:27 PM 45.9070 -70.7140 281° West 454 522 36,000  Level FlightAware ADS-B
Fri 01:52:08 PM 45.9210 -70.8290 280° West 445 512 36,000  Level FlightAware ADS-B
Fri 01:52:52 PM 45.9160 -70.9580 267° West 433 498 36,000  Level FlightAware ADS-B
Fri 01:53:27 PM 45.9080 -71.0580 263° West 432 497 36,000  Level FlightAware ADS-B
Fri 01:54:12 PM 45.8960 -71.1860 262° West 431 496 36,000 -282 Level FlightAware ADS-B
Fri 01:54:52 PM 45.8860 -71.2980 263° West 433 498 35,600 -947 Descending FlightAware ADS-B
Fri 01:55:47 PM 45.8720 -71.4560 263° West 437 503 34,500 -1,129 Descending FlightAware ADS-B
Fri 01:56:17 PM 45.8640 -71.5410 262° West 435 501 34,000 -880 Descending FlightAware ADS-B
Fri 01:57:02 PM 45.8520 -71.6690 262° West 430 495 33,400 -960 Descending FlightAware ADS-B
Fri 01:57:32 PM 45.8440 -71.7530 262° West 432 497 32,800 -1,553 Descending FlightAware ADS-B
Fri 01:58:27 PM 45.8300 -71.9080 263° West 428 493 31,200 -2,733 Descending FlightAware ADS-B
Fri 01:59:02 PM 45.8200 -72.0080 262° West 445 512 28,700 -4,024 Descending FlightAware ADS-B
Fri 01:59:52 PM 45.8060 -72.1590 262° West 460 529 25,500 -2,894 Descending FlightAware ADS-B
Fri 02:00:27 PM 45.7960 -72.2610 262° West 436 502 24,600 -1,143 Descending FlightAware ADS-B
Fri 02:01:37 PM 45.7770 -72.4530 262° West 409 471 23,500 -991 Descending FlightAware ADS-B
Fri 02:02:22 PM 45.7650 -72.5730 262° West 418 481 22,700 -1,059 Descending FlightAware ADS-B
Fri 02:03:02 PM 45.7540 -72.6830 262° West 416 479 22,000 -1,200 Descending FlightAware ADS-B
Fri 02:03:47 PM 45.7420 -72.8020 262° West 404 465 21,000 -2,067 Descending FlightAware ADS-B
Fri 02:04:32 PM 45.7290 -72.9230 261° West 405 466 18,900 -2,775 Descending FlightAware ADS-B
Fri 02:05:07 PM 45.7200 -73.0150 262° West 404 465 17,300 -2,640 Descending FlightAware ADS-B
Fri 02:05:47 PM 45.7060 -73.1180 259° West 392 451 15,600 -2,541 Descending FlightAware ADS-B
Fri 02:06:32 PM 45.6680 -73.2150 241° Southwest 382 440 13,700 -2,200 Descending FlightAware ADS-B
Fri 02:07:17 PM 45.6290 -73.3060 239° Southwest 365 420 12,300 -1,884 Descending FlightAware ADS-B
Fri 02:07:58 PM 45.5920 -73.3880 237° Southwest 326 375 11,000 -1,704 Descending FlightAware ADS-B
Fri 02:08:38 PM 45.5560 -73.4500 230° Southwest 292 336 10,000 -1,371 Descending FlightAware ADS-B
Fri 02:09:08 PM 45.5270 -73.4890 223° Southwest 288 331 9,400 -1,309 Descending FlightAware ADS-B
Fri 02:09:33 PM 45.5020 -73.5220 223° Southwest 284 327 8,800 -1,333 Descending FlightAware ADS-B
Fri 02:09:53 PM 45.4830 -73.5470 223° Southwest 281 323 8,400 -1,179 Descending FlightAware ADS-B
Fri 02:10:29 PM 45.4490 -73.5910 222° Southwest 268 308 7,700 -1,182 Descending FlightAware ADS-B
Fri 02:10:59 PM 45.4220 -73.6280 224° Southwest 266 306 7,100 -1,286 Descending FlightAware ADS-B
Fri 02:12:07 PM 45.3640 -73.7030 222° Southwest 259 298 5,600 -1,326 Descending FlightAware ADS-B
Fri 02:12:34 PM 45.3400 -73.7340 222° Southwest 259 298 5,000 -1,053 Descending FlightAware ADS-B
Fri 02:13:04 PM 45.3120 -73.7720 224° Southwest 244 281 4,600 -750 Descending FlightAware ADS-B
Fri 02:13:30 PM 45.2920 -73.7970 221° Southwest 226 260 4,300 -964 Descending FlightAware ADS-B
Fri 02:14:00 PM 45.2720 -73.8330 232° Southwest 240 276 3,700 -900 Descending FlightAware ADS-B
Fri 02:14:30 PM 45.2790 -73.8790 282° West 240 276 3,400 -300 Descending FlightAware ADS-B
Fri 02:14:40 PM 45.2870 -73.8920 311° West 232 267 3,500 300 Climbing FlightAware ADS-B
Fri 02:14:50 PM 45.2930 -73.9000 317° Northwest 224 258 3,500 -548 Level FlightAware ADS-B
Fri 02:19:03 PM 45.4440 -73.7880 27° Northeast 130 150 1,100 -611 Descending FlightAware ADS-B
Fri 02:19:35 PM 45.4650 -73.7600 43° Northeast 136 157 600 -938 Descending FlightAware ADS-B
Fri 02:20:05 PM 45.4740 -73.7480 43° Northeast 60 69 -1,200 Descending FlightAware ADS-B

Login

Don't have an account? Register now (free) for customized features, flight alerts, and more!